Keiho Maru — JJ4010 — position and weather

sailwx.info

Track history (hours):
 
Tides and Currents Weather Stations Pressure Air Temp Water Temp Dewpoint Dewpoint Depression Visibility Wind Speed Wind Dir Waves Ship Positions

Keiho Maru

Last reported at 2018-Jun-19 13:45 UTC. Time now 2018-Jun-19 20:15 UTC.
Position N 34°41' E 135°12'.

Length 38 m; draft 3.6 m.

Type: Tug. MMSI: 431401501.

Date/timePositionNaut miles runAvg speedWind from/ knotsBaromVisibWave heightAir tempDewpointWater temp
2018-Jun-19 13:45N 34°41' E 135°12'1 3.7
2018-Jun-19 13:30N 34°41' E 135°13'3 6.8
2018-Jun-19 13:00N 34°41' E 135°17'1 1.4
2018-Jun-19 12:30N 34°41' E 135°17'3 6.1
2018-Jun-19 12:00N 34°40' E 135°13'0 0.0
2018-Jun-19 11:30N 34°40' E 135°13'0 0.0
2018-Jun-19 11:00N 34°40' E 135°13'0 0.0
2018-Jun-19 10:30N 34°40' E 135°13'0 0.0
2018-Jun-19 10:00N 34°40' E 135°13'0 0.0
2018-Jun-19 09:29N 34°40' E 135°13'0 0.0
2018-Jun-19 09:00N 34°40' E 135°13'0 0.0
2018-Jun-19 08:30N 34°40' E 135°13'1 1.0
2018-Jun-19 08:00N 34°40' E 135°14'1 1.0
2018-Jun-19 07:30N 34°40' E 135°13'0 0.0
2018-Jun-19 07:00N 34°40' E 135°13'0 0.0
2018-Jun-19 06:30N 34°40' E 135°13'1 1.5
2018-Jun-19 06:00N 34°40' E 135°14'1 2.3
2018-Jun-19 05:30N 34°41' E 135°15'3 5.1
2018-Jun-19 05:00N 34°41' E 135°12'0 0.0
2018-Jun-19 04:30N 34°41' E 135°12'0 0.0
2018-Jun-19 04:00N 34°41' E 135°12'0 0.0
2018-Jun-19 03:30N 34°41' E 135°12'0 0.0
2018-Jun-19 03:00N 34°41' E 135°12'0 0.0
2018-Jun-19 02:30N 34°41' E 135°12'0 0.0
2018-Jun-19 02:00N 34°41' E 135°12'0 0.0
2018-Jun-19 01:30N 34°41' E 135°12'0 0.0
2018-Jun-19 01:00N 34°41' E 135°12'2 4.7
2018-Jun-19 00:30N 34°42' E 135°15'1 1.6
2018-Jun-19 00:00N 34°42' E 135°16'1 2.7
2018-Jun-18 23:30N 34°41' E 135°15'1 2.3
2018-Jun-18 23:00N 34°41' E 135°13'1 2.0
2018-Jun-18 22:30N 34°41' E 135°12'0 0.0
2018-Jun-18 22:00N 34°41' E 135°12'0 0.0
2018-Jun-18 21:30N 34°41' E 135°12'0 0.0
2018-Jun-18 21:00N 34°41' E 135°12'  
2018-Jun-16 03:36N 34°41' E 135°12'0 0.1
2018-Jun-16 03:30N 34°41' E 135°12'0 0.0
2018-Jun-16 03:00N 34°41' E 135°12'0 0.0
2018-Jun-16 02:30N 34°41' E 135°12'0 0.0
2018-Jun-16 02:00N 34°41' E 135°12'0 0.0
2018-Jun-15 06:55N 34°41' E 135°12'0 0.0
2018-Jun-15 06:30N 34°41' E 135°12'0 0.0
2018-Jun-15 06:00N 34°41' E 135°12'0 0.0
2018-Jun-15 05:29N 34°41' E 135°12'0 0.0
2018-Jun-15 05:00N 34°41' E 135°12'0 0.0
2018-Jun-15 04:30N 34°41' E 135°12'0 0.0
2018-Jun-15 04:00N 34°41' E 135°12'0 0.0
2018-Jun-15 03:30N 34°41' E 135°12'0 0.0
2018-Jun-15 03:00N 34°41' E 135°12'0 0.0
2018-Jun-15 02:30N 34°41' E 135°12'0 0.0
2018-Jun-15 02:01N 34°41' E 135°12'2 3.2
2018-Jun-15 01:30N 34°41' E 135°14'3 5.2
2018-Jun-15 01:00N 34°42' E 135°17'0 0.3
2018-Jun-15 00:29N 34°42' E 135°17'2 3.2
2018-Jun-15 00:00N 34°41' E 135°18'2 4.3
2018-Jun-14 23:30N 34°40' E 135°15'3 5.2
2018-Jun-14 23:00N 34°41' E 135°12'0 0.0
2018-Jun-14 22:30N 34°41' E 135°12'0 0.0
2018-Jun-14 22:01N 34°41' E 135°12'0 0.0
2018-Jun-14 21:30N 34°41' E 135°12'0 0.0
2018-Jun-13 07:32N 34°41' E 135°12'0 0.3
2018-Jun-13 07:30N 34°41' E 135°12'4 7.5
2018-Jun-13 07:00N 34°41' E 135°17'1 1.3
2018-Jun-13 06:30N 34°41' E 135°17'4 7.9
2018-Jun-13 06:00N 34°41' E 135°13'1 1.5
2018-Jun-13 05:30N 34°41' E 135°12'0 0.0
2018-Jun-13 05:00N 34°41' E 135°12'0 0.0
2018-Jun-13 04:30N 34°41' E 135°12'0 0.0
2018-Jun-13 04:00N 34°41' E 135°12'0 0.0
2018-Jun-13 03:30N 34°41' E 135°12'0 0.0
2018-Jun-13 03:00N 34°41' E 135°12'0 0.0
2018-Jun-13 02:30N 34°41' E 135°12'0 0.0
2018-Jun-13 02:00N 34°41' E 135°12'0 0.0
2018-Jun-13 01:30N 34°41' E 135°12'0 0.0
2018-Jun-13 01:00N 34°41' E 135°12'0 0.0
2018-Jun-13 00:30N 34°41' E 135°12'0 0.0
2018-Jun-13 00:00N 34°41' E 135°12'3 6.3
2018-Jun-12 23:30N 34°41' E 135°16'0 0.1
2018-Jun-12 23:00N 34°41' E 135°16'1 1.4
2018-Jun-12 22:30N 34°40' E 135°15'2 3.9
2018-Jun-12 22:00N 34°38' E 135°16'2 4.8
2018-Jun-12 21:30N 34°39' E 135°13'2 3.2
2018-Jun-12 21:00N 34°41' E 135°12'0 0.0
2018-Jun-12 20:30N 34°41' E 135°12'0 0.0
2018-Jun-12 10:37N 34°41' E 135°12'0 0.0
2018-Jun-12 10:30N 34°41' E 135°12'5 9.7
2018-Jun-12 10:00N 34°42' E 135°18'0 1.0
2018-Jun-12 09:30N 34°42' E 135°17'2 4.0
2018-Jun-12 09:00N 34°42' E 135°15'0 0.0
2018-Jun-12 08:30N 34°42' E 135°15'0 0.0
2018-Jun-12 08:00N 34°42' E 135°15'0 0.0
2018-Jun-12 07:30N 34°42' E 135°15'0 0.0
2018-Jun-12 07:00N 34°42' E 135°15'0 0.0
2018-Jun-12 06:30N 34°42' E 135°15'2 3.3
2018-Jun-12 06:00N 34°40' E 135°14'1 1.1
2018-Jun-12 05:30N 34°40' E 135°15'2 4.4
2018-Jun-12 05:00N 34°41' E 135°12'0 0.0
2018-Jun-12 04:30N 34°41' E 135°12'0 0.0
2018-Jun-12 03:59N 34°41' E 135°12'0 0.0
2018-Jun-12 03:29N 34°41' E 135°12'0 0.0
2018-Jun-12 03:00N 34°41' E 135°12'0 0.0
2018-Jun-12 02:30N 34°41' E 135°12'0 0.0
2018-Jun-12 02:00N 34°41' E 135°12'0 0.0
2018-Jun-12 01:30N 34°41' E 135°12'0 0.0
2018-Jun-12 01:00N 34°41' E 135°12'0 0.0
2018-Jun-12 00:30N 34°41' E 135°12'0 0.0
2018-Jun-12 00:00N 34°41' E 135°12'0 0.0
2018-Jun-11 23:30N 34°41' E 135°12'3 6.4
2018-Jun-11 23:00N 34°41' E 135°16'1 2.1
2018-Jun-11 22:30N 34°41' E 135°17'1 1.5
2018-Jun-11 22:00N 34°40' E 135°18'3 6.4
2018-Jun-11 21:30N 34°41' E 135°14'2 3.2
2018-Jun-11 21:00N 34°41' E 135°12'0 0.0
2018-Jun-11 20:30N 34°41' E 135°12'0 0.0
2018-Jun-11 06:55N 34°41' E 135°12'0 0.0
2018-Jun-11 06:30N 34°41' E 135°12'0 0.0
2018-Jun-11 06:00N 34°41' E 135°12'0 0.0
2018-Jun-11 05:30N 34°41' E 135°12'0 0.0
2018-Jun-11 04:59N 34°41' E 135°12'0 0.0
2018-Jun-11 04:30N 34°41' E 135°12'0 0.0
2018-Jun-11 04:00N 34°41' E 135°12'0 0.8
2018-Jun-11 03:30N 34°41' E 135°12'2 4.3
2018-Jun-11 03:00N 34°40' E 135°15'2 4.4
2018-Jun-11 02:30N 34°41' E 135°12'0 0.0
2018-Jun-11 02:00N 34°41' E 135°12'0 0.0
2018-Jun-11 01:30N 34°41' E 135°12'0 0.0
2018-Jun-11 01:00N 34°41' E 135°12'0 0.0
2018-Jun-11 00:28N 34°41' E 135°12'0 0.0
2018-Jun-11 00:00N 34°41' E 135°12'0 0.0
2018-Jun-10 23:26N 34°41' E 135°12'0 0.0
2018-Jun-09 21:29N 34°41' E 135°12'3 5.2
2018-Jun-09 21:00N 34°41' E 135°15'2 4.3
2018-Jun-09 20:31N 34°41' E 135°13'1 1.1
2018-Jun-09 19:59N 34°41' E 135°12'0 0.0
2018-Jun-09 19:30N 34°41' E 135°12'0 0.0
2018-Jun-09 18:59N 34°41' E 135°12'0 0.0
2018-Jun-09 18:30N 34°41' E 135°12'0 0.0
2018-Jun-09 18:00N 34°41' E 135°12'0 0.0
2018-Jun-09 17:30N 34°41' E 135°12'0 0.0
2018-Jun-09 17:00N 34°41' E 135°12'0 0.0
2018-Jun-09 16:30N 34°41' E 135°12'0 0.0
2018-Jun-09 16:00N 34°41' E 135°12'0 0.0
2018-Jun-09 15:01N 34°41' E 135°12'1 1.6
2018-Jun-09 14:30N 34°41' E 135°13'3 5.2
2018-Jun-09 14:00N 34°42' E 135°16'  
Track history (hours):
 
Tides and Currents Weather Stations Pressure Air Temp Water Temp Dewpoint Dewpoint Depression Visibility Wind Speed Wind Dir Waves Ship Positions

Keiho Maru

Last reported at 2018-Jun-19 13:45 UTC. Time now 2018-Jun-19 20:15 UTC.
Position N 34°41' E 135°12'.

Length 38 m; draft 3.6 m.

Type: Tug. MMSI: 431401501.

Date/timePositionNaut miles runAvg speedWind from/ knotsBaromVisibWave heightAir tempDewpointWater temp
2018-Jun-19 13:45N 34°41' E 135°12'1 3.7
2018-Jun-19 13:30N 34°41' E 135°13'3 6.8
2018-Jun-19 13:00N 34°41' E 135°17'1 1.4
2018-Jun-19 12:30N 34°41' E 135°17'3 6.1
2018-Jun-19 12:00N 34°40' E 135°13'0 0.0
2018-Jun-19 11:30N 34°40' E 135°13'0 0.0
2018-Jun-19 11:00N 34°40' E 135°13'0 0.0
2018-Jun-19 10:30N 34°40' E 135°13'0 0.0
2018-Jun-19 10:00N 34°40' E 135°13'0 0.0
2018-Jun-19 09:29N 34°40' E 135°13'0 0.0
2018-Jun-19 09:00N 34°40' E 135°13'0 0.0
2018-Jun-19 08:30N 34°40' E 135°13'1 1.0
2018-Jun-19 08:00N 34°40' E 135°14'1 1.0
2018-Jun-19 07:30N 34°40' E 135°13'0 0.0
2018-Jun-19 07:00N 34°40' E 135°13'0 0.0
2018-Jun-19 06:30N 34°40' E 135°13'1 1.5
2018-Jun-19 06:00N 34°40' E 135°14'1 2.3
2018-Jun-19 05:30N 34°41' E 135°15'3 5.1
2018-Jun-19 05:00N 34°41' E 135°12'0 0.0
2018-Jun-19 04:30N 34°41' E 135°12'0 0.0
2018-Jun-19 04:00N 34°41' E 135°12'0 0.0
2018-Jun-19 03:30N 34°41' E 135°12'0 0.0
2018-Jun-19 03:00N 34°41' E 135°12'0 0.0
2018-Jun-19 02:30N 34°41' E 135°12'0 0.0
2018-Jun-19 02:00N 34°41' E 135°12'0 0.0
2018-Jun-19 01:30N 34°41' E 135°12'0 0.0
2018-Jun-19 01:00N 34°41' E 135°12'2 4.7
2018-Jun-19 00:30N 34°42' E 135°15'1 1.6
2018-Jun-19 00:00N 34°42' E 135°16'1 2.7
2018-Jun-18 23:30N 34°41' E 135°15'1 2.3
2018-Jun-18 23:00N 34°41' E 135°13'1 2.0
2018-Jun-18 22:30N 34°41' E 135°12'0 0.0
2018-Jun-18 22:00N 34°41' E 135°12'0 0.0
2018-Jun-18 21:30N 34°41' E 135°12'0 0.0
2018-Jun-18 21:00N 34°41' E 135°12'  
2018-Jun-16 03:36N 34°41' E 135°12'0 0.1
2018-Jun-16 03:30N 34°41' E 135°12'0 0.0
2018-Jun-16 03:00N 34°41' E 135°12'0 0.0
2018-Jun-16 02:30N 34°41' E 135°12'0 0.0
2018-Jun-16 02:00N 34°41' E 135°12'0 0.0
2018-Jun-15 06:55N 34°41' E 135°12'0 0.0
2018-Jun-15 06:30N 34°41' E 135°12'0 0.0
2018-Jun-15 06:00N 34°41' E 135°12'0 0.0
2018-Jun-15 05:29N 34°41' E 135°12'0 0.0
2018-Jun-15 05:00N 34°41' E 135°12'0 0.0
2018-Jun-15 04:30N 34°41' E 135°12'0 0.0
2018-Jun-15 04:00N 34°41' E 135°12'0 0.0
2018-Jun-15 03:30N 34°41' E 135°12'0 0.0
2018-Jun-15 03:00N 34°41' E 135°12'0 0.0
2018-Jun-15 02:30N 34°41' E 135°12'0 0.0
2018-Jun-15 02:01N 34°41' E 135°12'2 3.2
2018-Jun-15 01:30N 34°41' E 135°14'3 5.2
2018-Jun-15 01:00N 34°42' E 135°17'0 0.3
2018-Jun-15 00:29N 34°42' E 135°17'2 3.2
2018-Jun-15 00:00N 34°41' E 135°18'2 4.3
2018-Jun-14 23:30N 34°40' E 135°15'3 5.2
2018-Jun-14 23:00N 34°41' E 135°12'0 0.0
2018-Jun-14 22:30N 34°41' E 135°12'0 0.0
2018-Jun-14 22:01N 34°41' E 135°12'0 0.0
2018-Jun-14 21:30N 34°41' E 135°12'0 0.0
2018-Jun-13 07:32N 34°41' E 135°12'0 0.3
2018-Jun-13 07:30N 34°41' E 135°12'4 7.5
2018-Jun-13 07:00N 34°41' E 135°17'1 1.3
2018-Jun-13 06:30N 34°41' E 135°17'4 7.9
2018-Jun-13 06:00N 34°41' E 135°13'1 1.5
2018-Jun-13 05:30N 34°41' E 135°12'0 0.0
2018-Jun-13 05:00N 34°41' E 135°12'0 0.0
2018-Jun-13 04:30N 34°41' E 135°12'0 0.0
2018-Jun-13 04:00N 34°41' E 135°12'0 0.0
2018-Jun-13 03:30N 34°41' E 135°12'0 0.0
2018-Jun-13 03:00N 34°41' E 135°12'0 0.0
2018-Jun-13 02:30N 34°41' E 135°12'0 0.0
2018-Jun-13 02:00N 34°41' E 135°12'0 0.0
2018-Jun-13 01:30N 34°41' E 135°12'0 0.0
2018-Jun-13 01:00N 34°41' E 135°12'0 0.0
2018-Jun-13 00:30N 34°41' E 135°12'0 0.0
2018-Jun-13 00:00N 34°41' E 135°12'3 6.3
2018-Jun-12 23:30N 34°41' E 135°16'0 0.1
2018-Jun-12 23:00N 34°41' E 135°16'1 1.4
2018-Jun-12 22:30N 34°40' E 135°15'2 3.9
2018-Jun-12 22:00N 34°38' E 135°16'2 4.8
2018-Jun-12 21:30N 34°39' E 135°13'2 3.2
2018-Jun-12 21:00N 34°41' E 135°12'0 0.0
2018-Jun-12 20:30N 34°41' E 135°12'0 0.0
2018-Jun-12 10:37N 34°41' E 135°12'0 0.0
2018-Jun-12 10:30N 34°41' E 135°12'5 9.7
2018-Jun-12 10:00N 34°42' E 135°18'0 1.0
2018-Jun-12 09:30N 34°42' E 135°17'2 4.0
2018-Jun-12 09:00N 34°42' E 135°15'0 0.0
2018-Jun-12 08:30N 34°42' E 135°15'0 0.0
2018-Jun-12 08:00N 34°42' E 135°15'0 0.0
2018-Jun-12 07:30N 34°42' E 135°15'0 0.0
2018-Jun-12 07:00N 34°42' E 135°15'0 0.0
2018-Jun-12 06:30N 34°42' E 135°15'2 3.3
2018-Jun-12 06:00N 34°40' E 135°14'1 1.1
2018-Jun-12 05:30N 34°40' E 135°15'2 4.4
2018-Jun-12 05:00N 34°41' E 135°12'0 0.0
2018-Jun-12 04:30N 34°41' E 135°12'0 0.0
2018-Jun-12 03:59N 34°41' E 135°12'0 0.0
2018-Jun-12 03:29N 34°41' E 135°12'0 0.0
2018-Jun-12 03:00N 34°41' E 135°12'0 0.0
2018-Jun-12 02:30N 34°41' E 135°12'0 0.0
2018-Jun-12 02:00N 34°41' E 135°12'0 0.0
2018-Jun-12 01:30N 34°41' E 135°12'0 0.0
2018-Jun-12 01:00N 34°41' E 135°12'0 0.0
2018-Jun-12 00:30N 34°41' E 135°12'0 0.0
2018-Jun-12 00:00N 34°41' E 135°12'0 0.0
2018-Jun-11 23:30N 34°41' E 135°12'3 6.4
2018-Jun-11 23:00N 34°41' E 135°16'1 2.1
2018-Jun-11 22:30N 34°41' E 135°17'1 1.5
2018-Jun-11 22:00N 34°40' E 135°18'3 6.4
2018-Jun-11 21:30N 34°41' E 135°14'2 3.2
2018-Jun-11 21:00N 34°41' E 135°12'0 0.0
2018-Jun-11 20:30N 34°41' E 135°12'0 0.0
2018-Jun-11 06:55N 34°41' E 135°12'0 0.0
2018-Jun-11 06:30N 34°41' E 135°12'0 0.0
2018-Jun-11 06:00N 34°41' E 135°12'0 0.0
2018-Jun-11 05:30N 34°41' E 135°12'0 0.0
2018-Jun-11 04:59N 34°41' E 135°12'0 0.0
2018-Jun-11 04:30N 34°41' E 135°12'0 0.0
2018-Jun-11 04:00N 34°41' E 135°12'0 0.8
2018-Jun-11 03:30N 34°41' E 135°12'2 4.3
2018-Jun-11 03:00N 34°40' E 135°15'2 4.4
2018-Jun-11 02:30N 34°41' E 135°12'0 0.0
2018-Jun-11 02:00N 34°41' E 135°12'0 0.0
2018-Jun-11 01:30N 34°41' E 135°12'0 0.0
2018-Jun-11 01:00N 34°41' E 135°12'0 0.0
2018-Jun-11 00:28N 34°41' E 135°12'0 0.0
2018-Jun-11 00:00N 34°41' E 135°12'0 0.0
2018-Jun-10 23:26N 34°41' E 135°12'0 0.0
2018-Jun-09 21:29N 34°41' E 135°12'3 5.2
2018-Jun-09 21:00N 34°41' E 135°15'2 4.3
2018-Jun-09 20:31N 34°41' E 135°13'1 1.1
2018-Jun-09 19:59N 34°41' E 135°12'0 0.0
2018-Jun-09 19:30N 34°41' E 135°12'0 0.0
2018-Jun-09 18:59N 34°41' E 135°12'0 0.0
2018-Jun-09 18:30N 34°41' E 135°12'0 0.0
2018-Jun-09 18:00N 34°41' E 135°12'0 0.0
2018-Jun-09 17:30N 34°41' E 135°12'0 0.0
2018-Jun-09 17:00N 34°41' E 135°12'0 0.0
2018-Jun-09 16:30N 34°41' E 135°12'0 0.0
2018-Jun-09 16:00N 34°41' E 135°12'0 0.0
2018-Jun-09 15:01N 34°41' E 135°12'1 1.6
2018-Jun-09 14:30N 34°41' E 135°13'3 5.2
2018-Jun-09 14:00N 34°42' E 135°16'  

Dump ship's entire track history